< < Back
Terminal Aerodrome Forecast


Current Version              Previous Versions:   1  2  3  4  5  6  7  8  9  

Terminal Aerodrome Forecast

079
FTUS44 KHUN 222340
TAFHSV
TAF
KHSV 222340Z 2300/2324 31005KT P6SM FEW040 SCT060
     FM230300 02007KT P6SM SKC
      TEMPO 2310/2312 VRB03KT 5SM BR
     FM231200 04007KT P6SM SCT250=



Latest METAR

327
SAUS80 KWBC 231300
MTRHSV
METAR KHSV 231253Z 01007KT 10SM CLR 14/07 A3003 RMK AO2 SLP164
T01390072


USA.gov is the U.S. government's official web portal to all federal, state and local government web resources and services.